Time;durP1;ratioP1;P1;durP2;ratioP2;P2;SDS_P1;SDS_P2;PMS_P1;PMS_P2;Temp;Humidity;BMP_temperature;BMP_pressure;BME280_temperature;BME280_humidity;BME280_pressure;Samples;Min_cycle;Max_cycle;Signal;HPM_P1;HPM_P2
2022/05/03 00:01:46;;;;;;;1.97;1.40;;;7.30;99.90;;;;;;5020997;28;20204;-80
2022/05/03 00:04:22;;;;;;;1.57;1.43;;;7.20;99.90;;;;;;5009256;28;20219;-81
2022/05/03 00:07:05;;;;;;;4.83;1.30;;;7.30;99.90;;;;;;5022018;28;20211;-80
2022/05/03 00:09:39;;;;;;;1.30;1.20;;;7.20;99.90;;;;;;5035738;28;20211;-81
2022/05/03 00:12:10;;;;;;;1.47;1.37;;;7.20;99.90;;;;;;5008997;28;20243;-81
2022/05/03 00:14:44;;;;;;;3.63;1.70;;;7.20;99.90;;;;;;5024025;28;20230;-81
2022/05/03 00:17:14;;;;;;;2.17;1.20;;;7.20;99.90;;;;;;5029712;28;20234;-80
2022/05/03 00:19:43;;;;;;;2.30;1.30;;;7.20;99.90;;;;;;5028959;28;20231;-81
2022/05/03 00:22:13;;;;;;;2.27;1.40;;;7.10;99.90;;;;;;5014274;28;20199;-81
2022/05/03 00:24:41;;;;;;;1.83;1.33;;;7.10;99.90;;;;;;5035174;28;20615;-80
2022/05/03 00:27:08;;;;;;;1.40;1.30;;;7.00;99.90;;;;;;5034665;28;20192;-81
2022/05/03 00:29:35;;;;;;;4.13;1.40;;;7.00;99.90;;;;;;5045318;28;20225;-81
2022/05/03 00:32:04;;;;;;;1.57;1.43;;;6.90;99.90;;;;;;5044579;28;20188;-81
2022/05/03 00:34:34;;;;;;;1.60;1.50;;;6.90;99.90;;;;;;5029623;28;20216;-81
2022/05/03 00:37:01;;;;;;;1.80;1.33;;;6.90;99.90;;;;;;5020894;28;20216;-81
2022/05/03 00:39:28;;;;;;;1.87;1.30;;;6.80;99.90;;;;;;5029834;28;20616;-81
2022/05/03 00:42:04;;;;;;;1.40;1.30;;;6.80;99.90;;;;;;5007845;28;20322;-80
2022/05/03 00:44:58;;;;;;;2.03;1.70;;;6.70;99.90;;;;;;5029453;28;20223;-81
2022/05/03 00:47:36;;;;;;;1.70;1.60;;;6.70;99.90;;;;;;5035971;28;20281;-81
2022/05/03 00:50:06;;;;;;;2.00;1.80;;;6.70;99.90;;;;;;5026532;28;20190;-81
2022/05/03 00:52:38;;;;;;;1.63;1.53;;;6.60;99.90;;;;;;5025604;28;20227;-81
2022/05/03 00:55:39;;;;;;;2.73;1.67;;;6.60;99.90;;;;;;5017258;28;20220;-81
2022/05/03 00:58:21;;;;;;;2.07;1.47;;;6.50;99.90;;;;;;5030289;28;20297;-81
2022/05/03 01:00:56;;;;;;;1.70;1.60;;;6.50;99.90;;;;;;5027778;28;20230;-80
2022/05/03 01:03:27;;;;;;;3.40;1.60;;;6.40;99.90;;;;;;5028358;28;20228;-81
2022/05/03 01:06:16;;;;;;;1.43;1.33;;;6.40;99.90;;;;;;5025092;28;20204;-81
2022/05/03 01:08:55;;;;;;;2.27;1.30;;;6.40;99.90;;;;;;5006127;28;20219;-80
2022/05/03 01:11:41;;;;;;;1.70;1.60;;;6.40;99.90;;;;;;5007949;28;20207;-81
2022/05/03 01:14:16;;;;;;;1.80;1.70;;;6.30;99.90;;;;;;5007275;28;20208;-81
2022/05/03 01:16:55;;;;;;;2.10;1.70;;;6.30;99.90;;;;;;5023342;28;20210;-81
2022/05/03 01:19:37;;;;;;;1.60;1.50;;;6.30;99.90;;;;;;5011217;28;20209;-82
2022/05/03 01:22:10;;;;;;;2.60;2.07;;;6.30;99.90;;;;;;5026300;28;20216;-82
2022/05/03 01:25:07;;;;;;;1.77;1.60;;;6.30;99.90;;;;;;5022320;28;20228;-81
2022/05/03 01:27:58;;;;;;;1.70;1.60;;;6.20;99.90;;;;;;5025358;28;20218;-82
2022/05/03 01:30:30;;;;;;;2.03;1.53;;;6.20;99.90;;;;;;5027999;28;20192;-81
2022/05/03 01:33:06;;;;;;;2.03;1.80;;;6.20;99.90;;;;;;5024932;28;20198;-82
2022/05/03 01:35:38;;;;;;;2.37;1.60;;;6.20;99.90;;;;;;5030826;28;20530;-82
2022/05/03 01:38:15;;;;;;;1.80;1.70;;;6.10;99.90;;;;;;5020050;28;20335;-81
2022/05/03 01:40:54;;;;;;;2.30;2.00;;;6.10;99.90;;;;;;5029024;28;20627;-81
2022/05/03 01:43:32;;;;;;;2.07;1.87;;;6.00;99.90;;;;;;5032702;28;20218;-81
2022/05/03 01:46:10;;;;;;;2.03;1.60;;;5.90;99.90;;;;;;5023525;28;20208;-82
2022/05/03 01:51:46;;;;;;;2.50;2.30;;;5.90;99.90;;;;;;5011525;28;20223;-81
2022/05/03 01:54:39;;;;;;;2.80;1.73;;;5.80;99.90;;;;;;5006007;28;20231;-82
2022/05/03 01:57:15;;;;;;;1.80;1.70;;;5.80;99.90;;;;;;5024241;28;20824;-81
2022/05/03 01:59:53;;;;;;;2.10;1.90;;;5.80;99.90;;;;;;5026414;28;20227;-81
2022/05/03 02:02:35;;;;;;;2.87;2.33;;;5.80;99.90;;;;;;5021436;28;20569;-81
2022/05/03 02:05:06;;;;;;;3.53;1.80;;;5.70;99.90;;;;;;5014252;28;20221;-81
2022/05/03 02:07:52;;;;;;;2.30;2.10;;;5.70;99.90;;;;;;5029777;28;20735;-81
2022/05/03 02:10:24;;;;;;;2.90;2.17;;;5.70;99.90;;;;;;5017462;28;20230;-82
2022/05/03 02:12:58;;;;;;;3.50;1.90;;;5.60;99.90;;;;;;5033959;28;20352;-81
2022/05/03 02:15:36;;;;;;;4.80;2.10;;;5.70;99.90;;;;;;5043855;28;20200;-82
2022/05/03 02:18:11;;;;;;;5.47;2.20;;;5.70;99.90;;;;;;5023767;28;20222;-81
2022/05/03 02:21:09;;;;;;;2.43;2.23;;;5.70;99.90;;;;;;5034009;28;20671;-81
2022/05/03 02:23:47;;;;;;;6.80;3.07;;;5.60;99.90;;;;;;5032076;28;20723;-81
2022/05/03 02:26:26;;;;;;;1.97;1.87;;;5.60;99.90;;;;;;5020935;28;20207;-81
2022/05/03 02:28:56;;;;;;;3.60;3.30;;;5.60;99.90;;;;;;5025091;28;20196;-80
2022/05/03 02:31:32;;;;;;;4.53;2.77;;;5.60;99.90;;;;;;5027443;28;20559;-80
2022/05/03 02:34:08;;;;;;;3.83;3.00;;;5.70;99.90;;;;;;5022682;28;20282;-81
2022/05/03 02:36:43;;;;;;;3.87;2.90;;;5.70;99.90;;;;;;4998814;28;20200;-79
2022/05/03 02:39:13;;;;;;;4.13;3.10;;;5.70;99.90;;;;;;5018035;28;20199;-81
2022/05/03 02:41:42;;;;;;;6.03;3.67;;;5.60;99.90;;;;;;5004945;28;20219;-80
2022/05/03 02:44:09;;;;;;;4.97;4.40;;;5.60;99.90;;;;;;5025104;28;20224;-81
2022/05/03 02:46:49;;;;;;;4.10;3.47;;;5.70;99.90;;;;;;5027321;28;20204;-80
2022/05/03 02:49:20;;;;;;;5.53;3.97;;;5.70;99.90;;;;;;5018525;28;20687;-81
2022/05/03 02:51:53;;;;;;;4.40;3.97;;;5.70;99.90;;;;;;5023484;28;20212;-81
2022/05/03 02:54:39;;;;;;;4.73;3.97;;;5.70;99.90;;;;;;5027427;28;20216;-82
2022/05/03 02:57:16;;;;;;;6.17;5.03;;;5.80;99.90;;;;;;5022628;28;20192;-82
2022/05/03 03:03:07;;;;;;;7.57;4.23;;;5.70;99.90;;;;;;4999139;28;20203;-80
2022/05/03 03:05:41;;;;;;;5.93;4.30;;;5.70;99.90;;;;;;5025581;28;20204;-81
2022/05/03 03:08:12;;;;;;;5.53;4.67;;;5.70;99.90;;;;;;5025426;28;20917;-81
2022/05/03 03:10:50;;;;;;;6.20;5.30;;;5.70;99.90;;;;;;5024329;28;20206;-81
2022/05/03 03:13:27;;;;;;;5.77;4.83;;;5.70;99.90;;;;;;5025155;28;20713;-81
2022/05/03 03:15:54;;;;;;;7.90;5.77;;;5.80;99.90;;;;;;5042097;28;20195;-81
2022/05/03 03:18:24;;;;;;;6.30;5.30;;;5.80;99.90;;;;;;5025822;28;20219;-82
2022/05/03 03:20:55;;;;;;;5.80;4.40;;;5.80;99.90;;;;;;5019695;28;20208;-82
2022/05/03 03:23:29;;;;;;;7.90;4.87;;;5.80;99.90;;;;;;5023124;28;20262;-82
2022/05/03 03:25:58;;;;;;;8.37;5.30;;;5.80;99.90;;;;;;5003599;28;20928;-82
2022/05/03 03:28:29;;;;;;;8.73;5.83;;;5.80;99.90;;;;;;4999017;28;20302;-83
2022/05/03 03:30:59;;;;;;;5.17;4.50;;;5.80;99.90;;;;;;5024081;28;20865;-82
2022/05/03 03:33:32;;;;;;;7.37;4.80;;;5.80;99.90;;;;;;5045213;28;20278;-81
2022/05/03 03:36:02;;;;;;;6.40;5.17;;;5.80;99.90;;;;;;5016944;28;21224;-82
2022/05/03 03:38:36;;;;;;;6.17;4.10;;;5.80;99.90;;;;;;5022576;28;20205;-81
2022/05/03 03:41:03;;;;;;;7.33;4.37;;;5.80;99.90;;;;;;5015314;28;20970;-82
2022/05/03 03:43:31;;;;;;;4.40;3.80;;;5.80;99.90;;;;;;5017306;28;20224;-82
2022/05/03 03:45:58;;;;;;;6.63;5.17;;;5.80;99.90;;;;;;5022137;28;21100;-83
2022/05/03 03:48:25;;;;;;;7.00;4.40;;;5.80;99.90;;;;;;5029183;28;20204;-82
2022/05/03 03:50:54;;;;;;;6.03;5.27;;;5.80;99.90;;;;;;5007627;28;20231;-82
2022/05/03 03:53:23;;;;;;;6.67;6.07;;;5.80;99.90;;;;;;5009845;28;20669;-83
2022/05/03 03:55:51;;;;;;;8.13;6.77;;;5.80;99.90;;;;;;5014596;28;20212;-82
2022/05/03 03:58:18;;;;;;;7.80;5.83;;;5.80;99.90;;;;;;4993959;28;20204;-82
2022/05/03 04:00:46;;;;;;;11.50;6.83;;;5.90;99.90;;;;;;5022387;28;20612;-82
2022/05/03 04:03:17;;;;;;;8.37;6.50;;;5.90;99.90;;;;;;5026784;28;20238;-83
2022/05/03 04:05:46;;;;;;;8.57;6.77;;;6.00;99.90;;;;;;5008064;28;20226;-82
2022/05/03 04:08:13;;;;;;;7.90;6.70;;;6.10;99.90;;;;;;5020285;28;20199;-83
2022/05/03 04:10:43;;;;;;;9.43;6.97;;;6.10;99.90;;;;;;5044884;28;20218;-82
2022/05/03 04:13:13;;;;;;;6.47;5.87;;;6.20;99.90;;;;;;5000772;28;20242;-82
2022/05/03 04:15:40;;;;;;;9.63;6.80;;;6.30;99.90;;;;;;5028649;28;20207;-81
2022/05/03 04:18:07;;;;;;;8.40;5.97;;;6.40;99.90;;;;;;5025832;28;20212;-81
2022/05/03 04:20:37;;;;;;;7.40;5.97;;;6.40;99.90;;;;;;5025673;28;20200;-81
2022/05/03 04:23:03;;;;;;;11.27;6.70;;;6.50;99.90;;;;;;5018357;28;21244;-81
2022/05/03 04:25:31;;;;;;;9.97;6.43;;;6.50;99.90;;;;;;5023184;28;20665;-81
2022/05/03 04:27:59;;;;;;;12.80;7.20;;;6.60;99.90;;;;;;5003498;28;20345;-80
2022/05/03 04:30:26;;;;;;;6.80;6.10;;;6.60;99.90;;;;;;5016241;28;20204;-81
2022/05/03 04:32:53;;;;;;;9.57;6.33;;;6.70;99.90;;;;;;5007032;28;20204;-81
2022/05/03 04:35:20;;;;;;;7.57;6.23;;;6.70;99.90;;;;;;5035473;28;20196;-82
2022/05/03 04:37:47;;;;;;;13.93;7.70;;;6.80;99.90;;;;;;5040121;28;20206;-81
2022/05/03 04:40:14;;;;;;;9.10;6.67;;;6.90;99.90;;;;;;5034740;28;20210;-82
2022/05/03 04:42:41;;;;;;;11.90;6.77;;;6.90;99.90;;;;;;5003456;28;20207;-82
2022/05/03 04:45:11;;;;;;;9.97;7.40;;;7.00;99.90;;;;;;5004169;28;20328;-82
2022/05/03 04:47:38;;;;;;;7.40;6.10;;;7.10;99.90;;;;;;5006797;28;20211;-82
2022/05/03 04:50:06;;;;;;;10.67;6.90;;;7.10;99.90;;;;;;5010803;28;20227;-83
2022/05/03 04:52:33;;;;;;;12.23;7.10;;;7.20;99.90;;;;;;5011793;28;20207;-81
2022/05/03 04:55:00;;;;;;;10.23;7.50;;;7.30;99.90;;;;;;5004758;28;20219;-81
2022/05/03 04:57:27;;;;;;;9.80;6.00;;;7.30;99.90;;;;;;5008579;28;20561;-81
2022/05/03 04:59:53;;;;;;;11.00;6.70;;;7.40;99.90;;;;;;5017074;28;20214;-81
2022/05/03 05:02:22;;;;;;;13.40;6.57;;;7.50;99.90;;;;;;5021522;28;20227;-81
2022/05/03 05:04:49;;;;;;;7.63;6.83;;;7.50;99.90;;;;;;5011854;28;20295;-82
2022/05/03 05:07:16;;;;;;;11.10;6.83;;;7.60;99.90;;;;;;5013952;28;20243;-82
2022/05/03 05:10:23;;;;;;;13.87;7.60;;;7.60;99.90;;;;;;5011205;28;20207;-81
2022/05/03 05:12:31;;;;;;;9.73;7.53;;;7.60;99.90;;;;;;5006183;28;20663;-81
2022/05/03 05:14:58;;;;;;;13.87;8.00;;;7.70;99.90;;;;;;4997377;28;20362;-82
2022/05/03 05:17:26;;;;;;;10.77;7.57;;;7.70;99.90;;;;;;5024329;28;20219;-83
2022/05/03 05:19:53;;;;;;;14.07;7.70;;;7.70;99.90;;;;;;5011792;28;20586;-82
2022/05/03 05:22:20;;;;;;;10.00;8.07;;;7.80;99.90;;;;;;5013562;28;20273;-82
2022/05/03 05:24:46;;;;;;;14.00;8.00;;;7.80;99.90;;;;;;5006566;28;20214;-81
2022/05/03 05:27:14;;;;;;;11.53;7.90;;;7.90;99.90;;;;;;5019853;28;20219;-82
2022/05/03 05:29:41;;;;;;;12.60;8.43;;;7.90;99.90;;;;;;5039393;28;20246;-81
2022/05/03 05:32:08;;;;;;;15.03;9.10;;;8.00;99.90;;;;;;5020654;28;20922;-82
2022/05/03 05:34:37;;;;;;;12.70;8.00;;;8.00;99.90;;;;;;5023415;28;20228;-81
2022/05/03 05:37:04;;;;;;;11.80;8.93;;;8.10;99.90;;;;;;5025975;28;20212;-82
2022/05/03 05:39:31;;;;;;;11.80;8.73;;;8.10;99.90;;;;;;5011582;28;20668;-81
2022/05/03 05:41:59;;;;;;;12.90;8.20;;;8.10;99.90;;;;;;5029612;28;21046;-81
2022/05/03 05:44:26;;;;;;;11.27;9.07;;;8.20;99.90;;;;;;5009046;28;20264;-83
2022/05/03 05:46:53;;;;;;;9.60;8.33;;;8.20;99.90;;;;;;5014919;28;20215;-79
2022/05/03 05:49:43;;;;;;;12.80;8.47;;;8.20;99.90;;;;;;5014877;28;20226;-82
2022/05/03 05:54:56;;;;;;;12.90;8.67;;;8.30;99.90;;;;;;5026801;28;20825;-83
2022/05/03 05:57:22;;;;;;;13.53;8.30;;;8.30;99.90;;;;;;5007861;28;20212;-82
2022/05/03 05:59:49;;;;;;;12.87;9.90;;;8.30;99.90;;;;;;5021465;28;20364;-83
2022/05/03 06:02:16;;;;;;;12.17;9.20;;;8.30;99.90;;;;;;5021161;28;20211;-82
2022/05/03 06:04:45;;;;;;;15.63;9.53;;;8.30;99.90;;;;;;5008181;28;20864;-81
2022/05/03 06:07:12;;;;;;;12.40;10.60;;;8.30;99.90;;;;;;5011123;28;20698;-83
2022/05/03 06:09:38;;;;;;;15.97;10.23;;;8.30;99.90;;;;;;5009202;28;20208;-81
2022/05/03 06:12:05;;;;;;;13.00;9.77;;;8.30;99.90;;;;;;5007371;28;20207;-81
2022/05/03 06:14:32;;;;;;;14.67;10.23;;;8.30;99.90;;;;;;5003228;28;20228;-80
2022/05/03 06:16:59;;;;;;;11.63;9.73;;;8.40;99.90;;;;;;5008309;28;20212;-81
2022/05/03 06:19:26;;;;;;;12.23;9.67;;;8.40;99.90;;;;;;5028310;28;20584;-80
2022/05/03 06:21:54;;;;;;;16.23;10.37;;;8.40;99.90;;;;;;5026083;28;20207;-81
2022/05/03 06:24:21;;;;;;;15.00;10.17;;;8.50;99.90;;;;;;5010383;28;20227;-80
2022/05/03 06:26:48;;;;;;;16.33;10.30;;;8.50;99.90;;;;;;5026287;28;20199;-81
2022/05/03 06:29:16;;;;;;;12.13;10.50;;;8.50;99.90;;;;;;5026132;28;20204;-81
2022/05/03 06:31:43;;;;;;;13.20;10.37;;;8.50;99.90;;;;;;4999026;28;20281;-82
2022/05/03 06:34:10;;;;;;;18.80;11.70;;;8.50;99.90;;;;;;5017642;28;20238;-80
2022/05/03 06:36:42;;;;;;;16.23;12.10;;;8.50;99.90;;;;;;5021332;28;20215;-82
2022/05/03 06:39:11;;;;;;;17.83;11.17;;;8.50;99.90;;;;;;5024810;28;20238;-80
2022/05/03 06:41:38;;;;;;;16.37;11.40;;;8.60;99.90;;;;;;5015796;28;20222;-83
2022/05/03 06:44:06;;;;;;;18.53;11.47;;;8.60;99.90;;;;;;5018941;28;20211;-80
2022/05/03 06:46:33;;;;;;;14.83;11.03;;;8.60;99.90;;;;;;5039060;28;20928;-82
2022/05/03 06:49:00;;;;;;;15.37;10.93;;;8.60;99.90;;;;;;5020525;28;20606;-81
2022/05/03 06:51:27;;;;;;;18.30;10.53;;;8.70;99.90;;;;;;5024816;28;20210;-81
2022/05/03 06:53:54;;;;;;;14.17;10.73;;;8.70;99.90;;;;;;5030681;28;20222;-81
2022/05/03 06:56:22;;;;;;;16.80;10.80;;;8.80;99.90;;;;;;5030102;28;20597;-82
2022/05/03 06:58:49;;;;;;;15.83;10.37;;;8.80;99.90;;;;;;5020959;28;20192;-82
2022/05/03 07:01:16;;;;;;;16.73;11.37;;;8.90;99.90;;;;;;5025910;28;20755;-82
2022/05/03 07:03:43;;;;;;;12.90;10.43;;;9.00;99.90;;;;;;5013308;28;20228;-81
2022/05/03 07:06:10;;;;;;;18.47;12.30;;;9.00;99.90;;;;;;5034742;28;20265;-81
2022/05/03 07:08:38;;;;;;;16.70;11.50;;;9.10;99.90;;;;;;5031666;28;20657;-80
2022/05/03 07:11:05;;;;;;;15.23;11.40;;;9.10;99.90;;;;;;5004858;28;20235;-80
2022/05/03 07:13:33;;;;;;;21.67;12.47;;;9.10;99.90;;;;;;5029925;28;20768;-81
2022/05/03 07:16:00;;;;;;;15.07;11.70;;;9.20;99.90;;;;;;5025204;28;20188;-82
2022/05/03 07:23:56;;;;;;;14.83;11.67;;;9.30;99.90;;;;;;5033062;28;20839;-82
2022/05/03 07:26:23;;;;;;;14.87;11.73;;;9.40;99.90;;;;;;5038061;28;20734;-82
2022/05/03 07:28:51;;;;;;;16.67;12.43;;;9.50;99.90;;;;;;5022996;28;20231;-81
2022/05/03 07:31:19;;;;;;;13.63;10.93;;;9.50;99.90;;;;;;5018495;28;20204;-81
2022/05/03 07:33:48;;;;;;;17.40;11.73;;;9.60;99.90;;;;;;5016673;28;20223;-80
2022/05/03 07:36:15;;;;;;;19.57;12.17;;;9.60;99.90;;;;;;5022845;28;20283;-81
2022/05/03 07:38:42;;;;;;;17.17;10.37;;;9.70;99.90;;;;;;5025118;28;20219;-80
2022/05/03 07:41:08;;;;;;;17.37;11.80;;;9.70;99.90;;;;;;5014726;28;20214;-80
2022/05/03 07:43:35;;;;;;;16.03;12.37;;;9.70;99.90;;;;;;5019941;28;20902;-81
2022/05/03 07:46:03;;;;;;;15.37;11.53;;;9.70;99.90;;;;;;4997219;28;20227;-81
2022/05/03 07:48:30;;;;;;;14.77;11.17;;;9.70;99.90;;;;;;5028493;28;20200;-80
2022/05/03 07:50:57;;;;;;;20.53;12.00;;;9.80;99.90;;;;;;4992222;28;20212;-80
2022/05/03 07:53:24;;;;;;;20.23;11.23;;;9.80;99.90;;;;;;5023392;28;20227;-81
2022/05/03 07:55:51;;;;;;;16.90;10.20;;;9.90;99.90;;;;;;5028007;28;20203;-80
2022/05/03 07:58:20;;;;;;;13.90;10.30;;;10.00;99.90;;;;;;5023740;28;20212;-81
2022/05/03 08:00:48;;;;;;;16.93;10.70;;;10.10;99.90;;;;;;5019237;28;20300;-80
2022/05/03 08:03:17;;;;;;;16.33;10.93;;;10.20;99.90;;;;;;5002241;28;20215;-80
2022/05/03 08:05:44;;;;;;;16.23;11.30;;;10.20;99.90;;;;;;5014295;28;20650;-80
2022/05/03 08:08:10;;;;;;;17.33;10.87;;;10.20;99.90;;;;;;5023650;28;20836;-80
2022/05/03 08:10:37;;;;;;;15.63;10.73;;;10.20;99.90;;;;;;5024965;28;20203;-80
2022/05/03 08:13:04;;;;;;;14.83;10.83;;;10.20;99.90;;;;;;5007382;28;21256;-81
2022/05/03 08:15:31;;;;;;;17.00;10.57;;;10.20;99.90;;;;;;5001391;28;20676;-81
2022/05/03 08:17:57;;;;;;;14.20;10.67;;;10.30;99.90;;;;;;5023121;28;20222;-80
2022/05/03 08:20:26;;;;;;;18.10;10.60;;;10.20;99.90;;;;;;5015397;28;20204;-80
2022/05/03 08:22:52;;;;;;;14.30;10.00;;;10.20;99.90;;;;;;4993297;28;20216;-80
2022/05/03 08:25:19;;;;;;;15.07;10.80;;;10.20;99.90;;;;;;5027203;28;20219;-80
2022/05/03 08:27:46;;;;;;;15.70;10.50;;;10.20;99.90;;;;;;5028556;28;20204;-79
2022/05/03 08:30:13;;;;;;;15.07;10.27;;;10.10;99.90;;;;;;5019917;28;20207;-80
2022/05/03 08:32:40;;;;;;;16.80;9.70;;;10.20;99.90;;;;;;5027633;28;20195;-80
2022/05/03 08:35:07;;;;;;;15.07;8.27;;;10.20;99.90;;;;;;5015122;28;20210;-80
2022/05/03 08:43:06;;;;;;;13.23;6.17;;;10.30;99.90;;;;;;5024383;28;20826;-80
2022/05/03 08:45:34;;;;;;;15.40;6.00;;;10.60;99.90;;;;;;5000518;28;20220;-80
2022/05/03 08:48:02;;;;;;;12.10;4.77;;;10.60;99.90;;;;;;5031870;28;20192;-80
2022/05/03 08:50:31;;;;;;;7.73;5.20;;;10.70;99.90;;;;;;5035827;28;20788;-80
2022/05/03 08:53:04;;;;;;;8.07;4.70;;;10.90;99.90;;;;;;5016538;28;20892;-80
2022/05/03 08:55:30;;;;;;;10.83;4.77;;;11.00;99.90;;;;;;5028405;28;20192;-80
2022/05/03 08:57:57;;;;;;;11.47;4.60;;;11.10;99.90;;;;;;5007365;28;20211;-80
2022/05/03 09:00:25;;;;;;;13.23;4.80;;;11.10;99.90;;;;;;5024437;28;20263;-80
2022/05/03 09:02:55;;;;;;;12.50;4.33;;;11.30;99.90;;;;;;5007636;28;20207;-80
2022/05/03 09:05:23;;;;;;;9.23;4.50;;;11.30;99.90;;;;;;5022060;28;20215;-80
2022/05/03 09:07:52;;;;;;;8.47;4.63;;;11.40;99.90;;;;;;5000397;28;20691;-80
2022/05/03 09:10:22;;;;;;;4.93;3.47;;;11.40;99.90;;;;;;5025251;28;20196;-80
2022/05/03 09:12:51;;;;;;;7.77;4.23;;;11.50;99.90;;;;;;5027517;28;20203;-80
2022/05/03 09:15:29;;;;;;;11.40;4.70;;;11.50;99.90;;;;;;5003804;28;21153;-80
2022/05/03 09:17:56;;;;;;;8.53;4.87;;;11.50;99.90;;;;;;5024408;28;20203;-80
2022/05/03 09:26:10;;;;;;;12.03;4.90;;;12.00;99.90;;;;;;5023293;28;20212;-80
2022/05/03 09:28:45;;;;;;;9.37;4.80;;;12.20;99.90;;;;;;5026799;28;20739;-80
2022/05/03 09:31:11;;;;;;;11.17;4.13;;;12.40;99.90;;;;;;5001780;28;20923;-80
2022/05/03 09:33:39;;;;;;;11.10;5.20;;;12.60;99.90;;;;;;5026878;28;20222;-80
2022/05/03 09:36:10;;;;;;;8.17;5.07;;;12.70;99.90;;;;;;5022384;28;20188;-80
2022/05/03 09:38:46;;;;;;;8.37;4.73;;;12.80;99.90;;;;;;5016183;28;20208;-80
2022/05/03 09:41:15;;;;;;;11.73;4.80;;;12.70;99.90;;;;;;5019306;28;20266;-81
2022/05/03 09:44:02;;;;;;;6.47;3.87;;;12.50;99.90;;;;;;5031503;28;20304;-80
2022/05/03 09:46:30;;;;;;;7.40;3.40;;;12.30;99.90;;;;;;5014425;28;20212;-80
2022/05/03 09:48:57;;;;;;;5.83;2.80;;;12.40;99.90;;;;;;5017079;28;20215;-80
2022/05/03 09:51:24;;;;;;;9.13;3.40;;;12.40;99.90;;;;;;5027840;28;20196;-81
2022/05/03 09:53:58;;;;;;;8.20;3.17;;;12.50;99.90;;;;;;5015785;28;20228;-81
2022/05/03 09:56:28;;;;;;;4.93;2.37;;;12.60;99.90;;;;;;5021610;28;20356;-80
2022/05/03 09:59:03;;;;;;;5.93;2.10;;;12.80;99.90;;;;;;5028157;28;20245;-81
2022/05/03 10:01:30;;;;;;;3.73;2.03;;;12.90;99.90;;;;;;5005089;28;20204;-80
2022/05/03 10:03:57;;;;;;;5.30;2.07;;;12.90;99.90;;;;;;5017763;28;20224;-81
2022/05/03 10:06:26;;;;;;;4.20;2.20;;;12.80;99.90;;;;;;5026022;28;20208;-81
2022/05/03 10:08:54;;;;;;;7.93;2.10;;;12.70;99.90;;;;;;5024894;28;20205;-79
2022/05/03 10:11:25;;;;;;;6.77;2.00;;;12.50;99.90;;;;;;5031521;28;20235;-81
2022/05/03 10:13:54;;;;;;;4.47;2.00;;;12.50;99.90;;;;;;5039593;28;20242;-83
2022/05/03 10:21:58;;;;;;;3.47;1.73;;;12.90;99.90;;;;;;5022645;28;20341;-83
2022/05/03 10:24:26;;;;;;;2.60;1.90;;;12.70;99.90;;;;;;4994813;28;20224;-80
2022/05/03 10:27:02;;;;;;;4.47;2.00;;;12.80;99.90;;;;;;5025631;28;20220;-83
2022/05/03 10:29:33;;;;;;;6.27;1.80;;;12.70;99.90;;;;;;5026705;28;20565;-81
2022/05/03 10:32:03;;;;;;;7.33;2.27;;;12.70;99.90;;;;;;5004974;28;20868;-81
2022/05/03 10:34:53;;;;;;;3.87;1.70;;;12.70;99.90;;;;;;5018605;28;20216;-81
2022/05/03 10:37:43;;;;;;;6.73;2.13;;;12.90;99.90;;;;;;5008941;28;20192;-81
2022/05/03 10:40:14;;;;;;;5.07;2.20;;;12.90;99.90;;;;;;5000539;28;20216;-82
2022/05/03 10:42:41;;;;;;;5.30;2.10;;;13.00;99.90;;;;;;5025065;28;20315;-82
2022/05/03 10:45:11;;;;;;;3.90;2.10;;;12.90;99.90;;;;;;5025718;28;20211;-82
2022/05/03 10:47:47;;;;;;;6.97;1.93;;;12.90;99.90;;;;;;5025052;28;20197;-81
2022/05/03 10:50:28;;;;;;;6.33;1.80;;;13.00;99.90;;;;;;5029307;28;20217;-81
2022/05/03 10:53:18;;;;;;;3.27;2.07;;;13.10;99.90;;;;;;5034732;28;20601;-80
2022/05/03 10:56:07;;;;;;;5.67;1.50;;;13.00;99.90;;;;;;5034503;28;20206;-80
2022/05/03 10:58:35;;;;;;;6.63;2.13;;;13.10;99.90;;;;;;5004592;28;20196;-80
2022/05/03 11:01:07;;;;;;;4.73;1.80;;;13.20;99.90;;;;;;5017958;28;20219;-84
2022/05/03 11:03:36;;;;;;;5.77;2.90;;;13.40;99.90;;;;;;5026300;28;20618;-83
2022/05/03 11:06:52;;;;;;;3.00;1.90;;;13.60;99.90;;;;;;4999457;28;20209;-83
2022/05/03 11:09:29;;;;;;;7.13;2.23;;;13.90;99.90;;;;;;5020155;28;20234;-86
2022/05/03 11:12:08;;;;;;;9.80;2.90;;;13.90;99.90;;;;;;5033127;28;20196;-83
2022/05/03 11:14:54;;;;;;;8.60;2.23;;;13.90;99.90;;;;;;5020204;28;20293;-84
2022/05/03 11:17:22;;;;;;;8.83;1.93;;;14.00;99.90;;;;;;5025063;28;20602;-84
2022/05/03 11:20:02;;;;;;;4.80;1.80;;;13.80;99.90;;;;;;5017475;28;20965;-83
2022/05/03 11:22:31;;;;;;;8.73;1.97;;;13.70;99.90;;;;;;5020405;28;20278;-84
2022/05/03 11:24:59;;;;;;;3.07;1.67;;;14.00;99.90;;;;;;5022788;28;20235;-83
2022/05/03 11:27:27;;;;;;;4.30;2.20;;;14.10;99.90;;;;;;5016575;28;20218;-85
2022/05/03 11:30:00;;;;;;;5.70;2.00;;;13.80;99.90;;;;;;5013426;28;20210;-82
2022/05/03 11:32:30;;;;;;;6.90;1.73;;;13.60;99.90;;;;;;5005704;28;20196;-84
2022/05/03 11:35:02;;;;;;;9.70;2.03;;;13.70;99.90;;;;;;5024857;28;20232;-83
2022/05/03 11:37:29;;;;;;;10.47;2.00;;;13.70;99.90;;;;;;5024151;28;20207;-84
2022/05/03 11:40:07;;;;;;;10.87;1.63;;;13.80;99.90;;;;;;5023557;28;20208;-84
2022/05/03 11:42:49;;;;;;;5.47;1.77;;;13.90;99.90;;;;;;4997070;28;20212;-85
2022/05/03 11:45:17;;;;;;;7.43;1.73;;;14.00;99.90;;;;;;5023097;28;20203;-85
2022/05/03 11:47:47;;;;;;;8.37;1.67;;;14.00;99.90;;;;;;5024455;28;20215;-84
2022/05/03 11:55:58;;;;;;;6.63;1.90;;;14.00;99.90;;;;;;5005627;28;20310;-84
2022/05/03 11:56:04;;;;;;;4.90;1.80;;;13.80;99.90;;;;;;5025723;28;20274;-84
2022/05/03 11:58:34;;;;;;;5.80;1.93;;;14.00;99.90;;;;;;5014681;28;20757;-85
2022/05/03 12:01:01;;;;;;;6.47;2.03;;;14.10;99.90;;;;;;5022924;28;20207;-85
2022/05/03 12:03:29;;;;;;;4.57;1.87;;;14.30;99.90;;;;;;5006623;28;20228;-86
2022/05/03 12:06:01;;;;;;;6.50;2.10;;;14.40;99.50;;;;;;5020148;28;20220;-84
2022/05/03 12:08:30;;;;;;;3.50;1.50;;;14.40;98.80;;;;;;5020073;28;20291;-86
2022/05/03 12:10:57;;;;;;;6.30;1.67;;;14.40;98.50;;;;;;5003818;28;20204;-85
2022/05/03 12:13:34;;;;;;;5.57;1.73;;;14.30;98.00;;;;;;5016243;28;20234;-83
2022/05/03 12:16:11;;;;;;;4.53;1.50;;;14.10;98.00;;;;;;5042654;28;20196;-84
2022/05/03 12:18:41;;;;;;;6.17;1.70;;;14.20;98.20;;;;;;5004318;28;20199;-84
2022/05/03 12:21:11;;;;;;;4.20;1.90;;;14.20;97.90;;;;;;5003070;28;20208;-84
2022/05/03 12:23:40;;;;;;;5.73;1.63;;;14.10;97.70;;;;;;5019674;28;20823;-84
2022/05/03 12:26:16;;;;;;;5.20;1.33;;;14.00;97.80;;;;;;5005259;28;20223;-84
2022/05/03 12:28:47;;;;;;;4.30;2.20;;;14.10;97.80;;;;;;4998736;28;20208;-85
2022/05/03 12:31:16;;;;;;;6.93;2.20;;;14.20;97.90;;;;;;5015517;28;20201;-84
2022/05/03 12:33:48;;;;;;;7.17;1.70;;;14.30;97.80;;;;;;5019530;28;20338;-85
2022/05/03 12:36:28;;;;;;;6.00;1.97;;;14.40;96.30;;;;;;5019919;28;20185;-83
2022/05/03 12:39:09;;;;;;;5.50;2.10;;;14.20;97.10;;;;;;5007180;28;20200;-81
2022/05/03 12:41:37;;;;;;;4.80;1.87;;;14.30;97.20;;;;;;5028551;28;20202;-81
2022/05/03 12:44:07;;;;;;;6.83;1.60;;;;;;;;;;4997288;28;20212;-82
2022/05/03 12:46:34;;;;;;;13.60;2.10;;;14.50;96.10;;;;;;5022155;28;20216;-91
2022/05/03 12:49:04;;;;;;;286.93;17.57;;;14.50;96.60;;;;;;5011762;28;20200;-89
2022/05/03 12:51:32;;;;;;;79.87;5.93;;;14.80;96.50;;;;;;5008003;28;20200;-87
2022/05/03 12:54:07;;;;;;;6.43;1.63;;;15.00;95.80;;;;;;5016504;28;20224;-86
2022/05/03 12:59:42;;;;;;;14.37;2.20;;;14.70;94.60;;;;;;5018301;28;20195;-81
2022/05/03 13:02:08;;;;;;;10.00;1.80;;;15.20;94.90;;;;;;5028393;28;20204;-82
2022/05/03 13:04:35;;;;;;;6.97;1.60;;;15.50;94.00;;;;;;5016450;28;20220;-82
2022/05/03 13:07:02;;;;;;;15.93;2.10;;;15.40;93.20;;;;;;5014560;28;20305;-83
2022/05/03 13:09:31;;;;;;;4.47;1.60;;;15.40;93.20;;;;;;5019879;28;20263;-79
2022/05/03 13:12:01;;;;;;;4.57;1.63;;;15.80;92.00;;;;;;5026779;28;20269;-82
2022/05/03 13:14:34;;;;;;;4.03;1.70;;;16.20;90.90;;;;;;5032651;28;20226;-81
2022/05/03 13:17:06;;;;;;;7.63;2.23;;;16.40;90.90;;;;;;5013815;28;20223;-83
2022/05/03 13:19:33;;;;;;;5.30;1.80;;;16.30;88.90;;;;;;5005917;28;20214;-82
2022/05/03 13:22:04;;;;;;;8.27;1.87;;;16.10;89.40;;;;;;5010230;28;20211;-83
2022/05/03 13:24:30;;;;;;;9.20;1.80;;;16.30;89.00;;;;;;5023185;28;20228;-82
2022/05/03 13:26:58;;;;;;;4.53;1.90;;;16.60;86.80;;;;;;5033412;28;20227;-80
2022/05/03 13:29:25;;;;;;;6.53;1.70;;;16.40;85.00;;;;;;5012067;28;20470;-79
2022/05/03 13:31:53;;;;;;;7.23;2.17;;;16.40;86.80;;;;;;5011990;28;20223;-81
2022/05/03 13:34:22;;;;;;;7.60;2.20;;;16.80;83.80;;;;;;5007920;28;20278;-81
2022/05/03 13:42:17;;;;;;;5.53;1.90;;;17.60;79.40;;;;;;5009861;28;20295;-79
2022/05/03 13:44:44;;;;;;;6.43;1.80;;;17.50;78.80;;;;;;5018710;28;20227;-80
2022/05/03 13:47:12;;;;;;;6.00;1.80;;;17.50;76.50;;;;;;5026018;28;20752;-79
2022/05/03 13:49:42;;;;;;;6.77;1.87;;;17.20;75.60;;;;;;5008411;28;20585;-81
2022/05/03 13:52:09;;;;;;;7.33;1.77;;;17.00;77.10;;;;;;5040496;28;20192;-81